sensor_id;sensor_type;location;lat;lon;timestamp;P1;durP1;ratioP1;P2;durP2;ratioP2
73454;SDS011;61690;51.824;6.306;2023-04-10T00:00:18;8.03;;;4.50;;
73454;SDS011;61690;51.824;6.306;2023-04-10T00:02:44;8.37;;;4.50;;
73454;SDS011;61690;51.824;6.306;2023-04-10T00:05:10;9.25;;;4.75;;
73454;SDS011;61690;51.824;6.306;2023-04-10T00:07:36;11.80;;;4.47;;
73454;SDS011;61690;51.824;6.306;2023-04-10T00:10:02;8.33;;;4.67;;
73454;SDS011;61690;51.824;6.306;2023-04-10T00:12:27;9.50;;;4.80;;
73454;SDS011;61690;51.824;6.306;2023-04-10T00:14:53;9.00;;;4.63;;
73454;SDS011;61690;51.824;6.306;2023-04-10T00:17:18;7.70;;;4.17;;
73454;SDS011;61690;51.824;6.306;2023-04-10T00:19:44;8.37;;;4.20;;
73454;SDS011;61690;51.824;6.306;2023-04-10T00:22:12;8.15;;;4.35;;
73454;SDS011;61690;51.824;6.306;2023-04-10T00:24:37;8.43;;;4.50;;
73454;SDS011;61690;51.824;6.306;2023-04-10T00:27:03;9.07;;;4.70;;
73454;SDS011;61690;51.824;6.306;2023-04-10T00:29:28;8.43;;;5.23;;
73454;SDS011;61690;51.824;6.306;2023-04-10T00:31:53;8.53;;;4.57;;
73454;SDS011;61690;51.824;6.306;2023-04-10T00:34:19;8.97;;;4.50;;
73454;SDS011;61690;51.824;6.306;2023-04-10T00:36:47;8.52;;;4.25;;
73454;SDS011;61690;51.824;6.306;2023-04-10T00:39:13;9.33;;;4.60;;
73454;SDS011;61690;51.824;6.306;2023-04-10T00:41:38;7.20;;;4.05;;
73454;SDS011;61690;51.824;6.306;2023-04-10T00:44:04;8.93;;;4.50;;
73454;SDS011;61690;51.824;6.306;2023-04-10T00:46:29;7.97;;;4.50;;
73454;SDS011;61690;51.824;6.306;2023-04-10T00:48:55;8.13;;;4.35;;
73454;SDS011;61690;51.824;6.306;2023-04-10T00:51:21;9.10;;;4.73;;
73454;SDS011;61690;51.824;6.306;2023-04-10T00:53:47;7.97;;;4.22;;
73454;SDS011;61690;51.824;6.306;2023-04-10T00:56:15;8.82;;;4.45;;
73454;SDS011;61690;51.824;6.306;2023-04-10T00:58:42;8.10;;;4.73;;
73454;SDS011;61690;51.824;6.306;2023-04-10T01:01:09;9.30;;;4.70;;
73454;SDS011;61690;51.824;6.306;2023-04-10T01:03:34;7.60;;;4.13;;
73454;SDS011;61690;51.824;6.306;2023-04-10T01:15:09;7.37;;;4.00;;
73454;SDS011;61690;51.824;6.306;2023-04-10T01:17:42;7.63;;;4.05;;
73454;SDS011;61690;51.824;6.306;2023-04-10T01:25:45;7.60;;;4.50;;
73454;SDS011;61690;51.824;6.306;2023-04-10T01:30:47;7.50;;;4.10;;
73454;SDS011;61690;51.824;6.306;2023-04-10T01:33:17;8.95;;;4.30;;
73454;SDS011;61690;51.824;6.306;2023-04-10T01:35:46;8.40;;;4.10;;
73454;SDS011;61690;51.824;6.306;2023-04-10T01:38:17;7.63;;;4.20;;
73454;SDS011;61690;51.824;6.306;2023-04-10T01:40:44;8.07;;;4.10;;
73454;SDS011;61690;51.824;6.306;2023-04-10T01:43:18;8.20;;;4.00;;
73454;SDS011;61690;51.824;6.306;2023-04-10T01:45:46;7.70;;;4.68;;
73454;SDS011;61690;51.824;6.306;2023-04-10T01:48:13;7.65;;;4.20;;
73454;SDS011;61690;51.824;6.306;2023-04-10T01:50:41;7.57;;;3.95;;
73454;SDS011;61690;51.824;6.306;2023-04-10T01:53:07;8.03;;;4.30;;
73454;SDS011;61690;51.824;6.306;2023-04-10T01:55:34;7.57;;;4.03;;
73454;SDS011;61690;51.824;6.306;2023-04-10T01:58:01;8.18;;;4.15;;
73454;SDS011;61690;51.824;6.306;2023-04-10T02:00:27;8.50;;;4.20;;
73454;SDS011;61690;51.824;6.306;2023-04-10T02:02:52;8.07;;;4.10;;
73454;SDS011;61690;51.824;6.306;2023-04-10T02:05:18;7.80;;;4.20;;
73454;SDS011;61690;51.824;6.306;2023-04-10T02:07:56;8.00;;;3.95;;
73454;SDS011;61690;51.824;6.306;2023-04-10T02:10:44;8.27;;;4.38;;
73454;SDS011;61690;51.824;6.306;2023-04-10T02:13:18;7.85;;;4.38;;
73454;SDS011;61690;51.824;6.306;2023-04-10T02:15:46;9.10;;;4.53;;
73454;SDS011;61690;51.824;6.306;2023-04-10T02:18:14;8.30;;;4.30;;
73454;SDS011;61690;51.824;6.306;2023-04-10T02:20:41;8.27;;;4.07;;
73454;SDS011;61690;51.824;6.306;2023-04-10T02:23:08;8.10;;;4.50;;
73454;SDS011;61690;51.824;6.306;2023-04-10T02:25:35;8.67;;;4.40;;
73454;SDS011;61690;51.824;6.306;2023-04-10T02:28:03;7.60;;;4.15;;
73454;SDS011;61690;51.824;6.306;2023-04-10T02:30:30;7.30;;;4.25;;
73454;SDS011;61690;51.824;6.306;2023-04-10T02:32:56;8.43;;;4.30;;
73454;SDS011;61690;51.824;6.306;2023-04-10T02:35:23;8.33;;;4.30;;
73454;SDS011;61690;51.824;6.306;2023-04-10T02:37:49;8.82;;;4.30;;
73454;SDS011;61690;51.824;6.306;2023-04-10T02:40:15;8.90;;;4.47;;
73454;SDS011;61690;51.824;6.306;2023-04-10T02:42:40;8.80;;;4.20;;
73454;SDS011;61690;51.824;6.306;2023-04-10T02:45:07;7.75;;;4.00;;
73454;SDS011;61690;51.824;6.306;2023-04-10T02:47:33;7.28;;;4.03;;
73454;SDS011;61690;51.824;6.306;2023-04-10T02:49:59;7.60;;;4.38;;
73454;SDS011;61690;51.824;6.306;2023-04-10T02:52:24;8.10;;;3.70;;
73454;SDS011;61690;51.824;6.306;2023-04-10T02:54:50;7.47;;;4.20;;
73454;SDS011;61690;51.824;6.306;2023-04-10T02:57:15;13.13;;;4.32;;
73454;SDS011;61690;51.824;6.306;2023-04-10T02:59:41;7.77;;;4.20;;
73454;SDS011;61690;51.824;6.306;2023-04-10T03:02:08;9.07;;;4.60;;
73454;SDS011;61690;51.824;6.306;2023-04-10T03:04:34;7.57;;;4.00;;
73454;SDS011;61690;51.824;6.306;2023-04-10T03:07:02;8.73;;;4.20;;
73454;SDS011;61690;51.824;6.306;2023-04-10T03:09:28;7.80;;;4.30;;
73454;SDS011;61690;51.824;6.306;2023-04-10T03:11:54;7.97;;;4.70;;
73454;SDS011;61690;51.824;6.306;2023-04-10T03:14:20;7.50;;;4.30;;
73454;SDS011;61690;51.824;6.306;2023-04-10T03:16:45;8.00;;;4.43;;
73454;SDS011;61690;51.824;6.306;2023-04-10T03:19:11;7.38;;;4.05;;
73454;SDS011;61690;51.824;6.306;2023-04-10T03:21:37;8.53;;;4.23;;
73454;SDS011;61690;51.824;6.306;2023-04-10T03:24:02;7.70;;;4.00;;
73454;SDS011;61690;51.824;6.306;2023-04-10T03:26:29;7.67;;;3.83;;
73454;SDS011;61690;51.824;6.306;2023-04-10T03:28:55;8.63;;;4.37;;
73454;SDS011;61690;51.824;6.306;2023-04-10T03:31:20;7.80;;;4.00;;
73454;SDS011;61690;51.824;6.306;2023-04-10T03:33:46;7.45;;;3.80;;
73454;SDS011;61690;51.824;6.306;2023-04-10T03:36:11;8.27;;;4.10;;
73454;SDS011;61690;51.824;6.306;2023-04-10T03:38:36;9.33;;;4.17;;
73454;SDS011;61690;51.824;6.306;2023-04-10T03:41:01;7.13;;;4.20;;
73454;SDS011;61690;51.824;6.306;2023-04-10T03:43:28;7.35;;;4.10;;
73454;SDS011;61690;51.824;6.306;2023-04-10T03:45:54;7.60;;;4.20;;
73454;SDS011;61690;51.824;6.306;2023-04-10T03:48:19;7.83;;;3.83;;
73454;SDS011;61690;51.824;6.306;2023-04-10T03:50:45;7.77;;;4.37;;
73454;SDS011;61690;51.824;6.306;2023-04-10T03:53:11;7.97;;;3.90;;
73454;SDS011;61690;51.824;6.306;2023-04-10T03:55:37;8.33;;;4.00;;
73454;SDS011;61690;51.824;6.306;2023-04-10T03:58:03;7.00;;;3.70;;
73454;SDS011;61690;51.824;6.306;2023-04-10T04:00:29;6.82;;;3.95;;
73454;SDS011;61690;51.824;6.306;2023-04-10T04:02:55;7.80;;;3.95;;
73454;SDS011;61690;51.824;6.306;2023-04-10T04:05:20;7.70;;;3.87;;
73454;SDS011;61690;51.824;6.306;2023-04-10T04:07:46;7.20;;;3.90;;
73454;SDS011;61690;51.824;6.306;2023-04-10T04:10:11;7.73;;;4.07;;
73454;SDS011;61690;51.824;6.306;2023-04-10T04:12:36;7.40;;;3.97;;
73454;SDS011;61690;51.824;6.306;2023-04-10T04:15:02;7.17;;;3.70;;
73454;SDS011;61690;51.824;6.306;2023-04-10T04:17:29;8.17;;;3.70;;
73454;SDS011;61690;51.824;6.306;2023-04-10T04:19:54;7.75;;;4.05;;
73454;SDS011;61690;51.824;6.306;2023-04-10T04:22:19;7.23;;;3.87;;
73454;SDS011;61690;51.824;6.306;2023-04-10T04:24:45;7.20;;;4.00;;
73454;SDS011;61690;51.824;6.306;2023-04-10T04:27:10;6.57;;;3.87;;
73454;SDS011;61690;51.824;6.306;2023-04-10T04:29:36;7.55;;;3.75;;
73454;SDS011;61690;51.824;6.306;2023-04-10T04:32:02;6.57;;;3.60;;
73454;SDS011;61690;51.824;6.306;2023-04-10T04:34:27;7.80;;;3.73;;
73454;SDS011;61690;51.824;6.306;2023-04-10T04:36:52;8.13;;;4.00;;
73454;SDS011;61690;51.824;6.306;2023-04-10T04:39:17;7.70;;;3.50;;
73454;SDS011;61690;51.824;6.306;2023-04-10T04:41:47;10.15;;;4.78;;
73454;SDS011;61690;51.824;6.306;2023-04-10T04:44:12;7.33;;;4.00;;
73454;SDS011;61690;51.824;6.306;2023-04-10T04:46:37;6.87;;;3.70;;
73454;SDS011;61690;51.824;6.306;2023-04-10T04:49:02;6.10;;;3.20;;
73454;SDS011;61690;51.824;6.306;2023-04-10T04:51:28;7.20;;;3.73;;
73454;SDS011;61690;51.824;6.306;2023-04-10T04:53:53;7.60;;;4.00;;
73454;SDS011;61690;51.824;6.306;2023-04-10T04:56:19;7.30;;;3.90;;
73454;SDS011;61690;51.824;6.306;2023-04-10T04:58:45;6.50;;;3.70;;
73454;SDS011;61690;51.824;6.306;2023-04-10T05:01:11;6.63;;;3.47;;
73454;SDS011;61690;51.824;6.306;2023-04-10T05:03:37;6.70;;;3.78;;
73454;SDS011;61690;51.824;6.306;2023-04-10T05:06:03;7.27;;;3.90;;
73454;SDS011;61690;51.824;6.306;2023-04-10T05:08:30;7.22;;;3.65;;
73454;SDS011;61690;51.824;6.306;2023-04-10T05:10:56;6.72;;;3.75;;
73454;SDS011;61690;51.824;6.306;2023-04-10T05:13:21;6.93;;;3.73;;
73454;SDS011;61690;51.824;6.306;2023-04-10T05:15:47;7.27;;;3.87;;
73454;SDS011;61690;51.824;6.306;2023-04-10T05:18:12;7.27;;;3.67;;
73454;SDS011;61690;51.824;6.306;2023-04-10T05:20:44;7.28;;;3.97;;
73454;SDS011;61690;51.824;6.306;2023-04-10T05:23:12;7.22;;;3.80;;
73454;SDS011;61690;51.824;6.306;2023-04-10T05:25:37;7.63;;;4.15;;
73454;SDS011;61690;51.824;6.306;2023-04-10T05:28:02;7.80;;;3.97;;
73454;SDS011;61690;51.824;6.306;2023-04-10T05:30:28;7.30;;;4.00;;
73454;SDS011;61690;51.824;6.306;2023-04-10T05:32:54;6.77;;;3.87;;
73454;SDS011;61690;51.824;6.306;2023-04-10T05:35:20;7.22;;;3.97;;
73454;SDS011;61690;51.824;6.306;2023-04-10T05:37:45;7.33;;;4.07;;
73454;SDS011;61690;51.824;6.306;2023-04-10T05:40:10;6.63;;;3.60;;
73454;SDS011;61690;51.824;6.306;2023-04-10T05:42:37;7.00;;;3.80;;
73454;SDS011;61690;51.824;6.306;2023-04-10T05:45:02;7.03;;;3.90;;
73454;SDS011;61690;51.824;6.306;2023-04-10T05:47:30;6.80;;;3.70;;
73454;SDS011;61690;51.824;6.306;2023-04-10T05:49:55;7.17;;;3.90;;
73454;SDS011;61690;51.824;6.306;2023-04-10T05:52:20;6.77;;;3.83;;
73454;SDS011;61690;51.824;6.306;2023-04-10T05:54:53;7.28;;;3.75;;
73454;SDS011;61690;51.824;6.306;2023-04-10T05:57:20;6.97;;;3.92;;
73454;SDS011;61690;51.824;6.306;2023-04-10T05:59:46;6.82;;;4.00;;
73454;SDS011;61690;51.824;6.306;2023-04-10T06:02:12;6.90;;;3.83;;
73454;SDS011;61690;51.824;6.306;2023-04-10T06:04:37;6.37;;;3.47;;
73454;SDS011;61690;51.824;6.306;2023-04-10T06:07:02;8.10;;;3.50;;
73454;SDS011;61690;51.824;6.306;2023-04-10T06:09:29;7.40;;;4.10;;
73454;SDS011;61690;51.824;6.306;2023-04-10T06:11:55;7.65;;;3.90;;
73454;SDS011;61690;51.824;6.306;2023-04-10T06:14:23;7.15;;;3.65;;
73454;SDS011;61690;51.824;6.306;2023-04-10T06:16:49;7.40;;;3.90;;
73454;SDS011;61690;51.824;6.306;2023-04-10T06:19:14;7.47;;;3.87;;
73454;SDS011;61690;51.824;6.306;2023-04-10T06:21:40;8.07;;;4.20;;
73454;SDS011;61690;51.824;6.306;2023-04-10T06:24:06;8.10;;;4.00;;
73454;SDS011;61690;51.824;6.306;2023-04-10T06:26:32;7.63;;;4.10;;
73454;SDS011;61690;51.824;6.306;2023-04-10T06:28:57;7.37;;;4.10;;
73454;SDS011;61690;51.824;6.306;2023-04-10T06:31:22;7.53;;;4.23;;
73454;SDS011;61690;51.824;6.306;2023-04-10T06:33:49;9.17;;;4.10;;
73454;SDS011;61690;51.824;6.306;2023-04-10T06:36:15;7.28;;;4.22;;
73454;SDS011;61690;51.824;6.306;2023-04-10T06:38:41;8.25;;;4.15;;
73454;SDS011;61690;51.824;6.306;2023-04-10T06:41:07;8.32;;;4.07;;
73454;SDS011;61690;51.824;6.306;2023-04-10T06:43:33;9.43;;;4.10;;
73454;SDS011;61690;51.824;6.306;2023-04-10T06:45:59;7.63;;;4.30;;
73454;SDS011;61690;51.824;6.306;2023-04-10T06:48:25;8.23;;;4.60;;
73454;SDS011;61690;51.824;6.306;2023-04-10T06:50:50;10.80;;;4.30;;
73454;SDS011;61690;51.824;6.306;2023-04-10T06:53:17;8.57;;;4.22;;
73454;SDS011;61690;51.824;6.306;2023-04-10T06:55:42;7.90;;;4.10;;
73454;SDS011;61690;51.824;6.306;2023-04-10T06:58:08;7.97;;;4.30;;
73454;SDS011;61690;51.824;6.306;2023-04-10T07:00:38;9.05;;;4.50;;
73454;SDS011;61690;51.824;6.306;2023-04-10T07:03:04;8.60;;;4.20;;
73454;SDS011;61690;51.824;6.306;2023-04-10T07:05:29;8.97;;;4.30;;
73454;SDS011;61690;51.824;6.306;2023-04-10T07:07:55;9.37;;;4.60;;
73454;SDS011;61690;51.824;6.306;2023-04-10T07:10:21;10.88;;;4.70;;
73454;SDS011;61690;51.824;6.306;2023-04-10T07:12:47;8.80;;;4.90;;
73454;SDS011;61690;51.824;6.306;2023-04-10T07:15:12;10.40;;;4.80;;
73454;SDS011;61690;51.824;6.306;2023-04-10T07:17:37;8.93;;;4.28;;
73454;SDS011;61690;51.824;6.306;2023-04-10T07:20:03;8.70;;;4.53;;
73454;SDS011;61690;51.824;6.306;2023-04-10T07:22:30;9.53;;;4.60;;
73454;SDS011;61690;51.824;6.306;2023-04-10T07:24:58;9.35;;;4.55;;
73454;SDS011;61690;51.824;6.306;2023-04-10T07:27:23;9.17;;;4.60;;
73454;SDS011;61690;51.824;6.306;2023-04-10T07:29:53;10.50;;;4.55;;
73454;SDS011;61690;51.824;6.306;2023-04-10T07:32:20;9.35;;;4.72;;
73454;SDS011;61690;51.824;6.306;2023-04-10T07:34:46;9.30;;;4.73;;
73454;SDS011;61690;51.824;6.306;2023-04-10T07:37:12;8.15;;;4.53;;
73454;SDS011;61690;51.824;6.306;2023-04-10T07:39:39;10.27;;;4.93;;
73454;SDS011;61690;51.824;6.306;2023-04-10T07:42:04;9.48;;;4.60;;
73454;SDS011;61690;51.824;6.306;2023-04-10T07:44:30;9.23;;;4.57;;
73454;SDS011;61690;51.824;6.306;2023-04-10T07:46:55;8.73;;;4.77;;
73454;SDS011;61690;51.824;6.306;2023-04-10T07:49:22;9.27;;;4.45;;
73454;SDS011;61690;51.824;6.306;2023-04-10T07:51:49;7.97;;;4.53;;
73454;SDS011;61690;51.824;6.306;2023-04-10T07:54:14;8.40;;;4.80;;
73454;SDS011;61690;51.824;6.306;2023-04-10T07:56:40;7.97;;;4.53;;
73454;SDS011;61690;51.824;6.306;2023-04-10T07:59:07;8.87;;;5.10;;
73454;SDS011;61690;51.824;6.306;2023-04-10T08:01:32;9.33;;;4.70;;
73454;SDS011;61690;51.824;6.306;2023-04-10T08:03:58;9.32;;;4.70;;
73454;SDS011;61690;51.824;6.306;2023-04-10T08:06:23;9.60;;;4.93;;
73454;SDS011;61690;51.824;6.306;2023-04-10T08:08:52;9.47;;;4.97;;
73454;SDS011;61690;51.824;6.306;2023-04-10T08:11:23;8.75;;;4.70;;
73454;SDS011;61690;51.824;6.306;2023-04-10T08:13:51;9.93;;;4.55;;
73454;SDS011;61690;51.824;6.306;2023-04-10T08:16:18;8.57;;;4.70;;
73454;SDS011;61690;51.824;6.306;2023-04-10T08:18:46;9.43;;;5.03;;
73454;SDS011;61690;51.824;6.306;2023-04-10T08:21:12;10.27;;;4.87;;
73454;SDS011;61690;51.824;6.306;2023-04-10T08:23:37;8.90;;;4.50;;
73454;SDS011;61690;51.824;6.306;2023-04-10T08:26:02;10.27;;;4.50;;
73454;SDS011;61690;51.824;6.306;2023-04-10T08:28:29;10.27;;;4.70;;
73454;SDS011;61690;51.824;6.306;2023-04-10T08:30:56;10.77;;;5.15;;
73454;SDS011;61690;51.824;6.306;2023-04-10T08:33:21;9.10;;;4.50;;
73454;SDS011;61690;51.824;6.306;2023-04-10T08:35:48;9.30;;;4.90;;
73454;SDS011;61690;51.824;6.306;2023-04-10T08:38:13;9.73;;;4.97;;
73454;SDS011;61690;51.824;6.306;2023-04-10T08:40:40;9.82;;;4.68;;
73454;SDS011;61690;51.824;6.306;2023-04-10T08:43:08;7.90;;;4.60;;
73454;SDS011;61690;51.824;6.306;2023-04-10T08:45:33;8.73;;;4.50;;
73454;SDS011;61690;51.824;6.306;2023-04-10T08:48:01;8.50;;;4.60;;
73454;SDS011;61690;51.824;6.306;2023-04-10T08:50:30;8.47;;;4.63;;
73454;SDS011;61690;51.824;6.306;2023-04-10T08:53:01;9.18;;;4.90;;
73454;SDS011;61690;51.824;6.306;2023-04-10T08:55:32;8.65;;;4.60;;
73454;SDS011;61690;51.824;6.306;2023-04-10T08:57:58;10.27;;;4.57;;
73454;SDS011;61690;51.824;6.306;2023-04-10T09:00:24;13.63;;;5.00;;
73454;SDS011;61690;51.824;6.306;2023-04-10T09:02:50;9.60;;;4.60;;
73454;SDS011;61690;51.824;6.306;2023-04-10T09:05:21;8.43;;;4.55;;
73454;SDS011;61690;51.824;6.306;2023-04-10T09:07:49;9.40;;;4.60;;
73454;SDS011;61690;51.824;6.306;2023-04-10T09:10:15;11.93;;;4.70;;
73454;SDS011;61690;51.824;6.306;2023-04-10T09:12:45;9.65;;;4.47;;
73454;SDS011;61690;51.824;6.306;2023-04-10T09:15:13;9.18;;;4.90;;
73454;SDS011;61690;51.824;6.306;2023-04-10T09:20:52;9.85;;;4.60;;
73454;SDS011;61690;51.824;6.306;2023-04-10T09:23:20;9.23;;;4.70;;
73454;SDS011;61690;51.824;6.306;2023-04-10T09:25:46;9.52;;;4.50;;
73454;SDS011;61690;51.824;6.306;2023-04-10T09:28:11;9.10;;;4.30;;
73454;SDS011;61690;51.824;6.306;2023-04-10T09:30:37;10.23;;;4.57;;
73454;SDS011;61690;51.824;6.306;2023-04-10T09:33:23;13.18;;;4.72;;
73454;SDS011;61690;51.824;6.306;2023-04-10T09:35:51;8.55;;;4.53;;
73454;SDS011;61690;51.824;6.306;2023-04-10T09:38:17;10.43;;;4.60;;
73454;SDS011;61690;51.824;6.306;2023-04-10T09:40:45;9.90;;;4.33;;
73454;SDS011;61690;51.824;6.306;2023-04-10T09:43:15;7.88;;;4.22;;
73454;SDS011;61690;51.824;6.306;2023-04-10T09:45:52;8.55;;;4.15;;
73454;SDS011;61690;51.824;6.306;2023-04-10T09:48:20;11.68;;;4.50;;
73454;SDS011;61690;51.824;6.306;2023-04-10T09:50:46;7.97;;;4.28;;
73454;SDS011;61690;51.824;6.306;2023-04-10T09:53:13;8.23;;;4.30;;
73454;SDS011;61690;51.824;6.306;2023-04-10T09:55:41;9.68;;;4.63;;
73454;SDS011;61690;51.824;6.306;2023-04-10T09:58:07;7.43;;;4.05;;
73454;SDS011;61690;51.824;6.306;2023-04-10T10:00:51;8.85;;;4.43;;
73454;SDS011;61690;51.824;6.306;2023-04-10T10:03:22;8.93;;;4.63;;
73454;SDS011;61690;51.824;6.306;2023-04-10T10:05:49;7.93;;;4.40;;
73454;SDS011;61690;51.824;6.306;2023-04-10T10:08:15;9.27;;;4.68;;
73454;SDS011;61690;51.824;6.306;2023-04-10T10:10:49;7.60;;;4.20;;
73454;SDS011;61690;51.824;6.306;2023-04-10T10:13:21;7.70;;;4.35;;
73454;SDS011;61690;51.824;6.306;2023-04-10T10:16:08;8.40;;;4.87;;
73454;SDS011;61690;51.824;6.306;2023-04-10T10:19:10;8.80;;;4.32;;
73454;SDS011;61690;51.824;6.306;2023-04-10T10:21:42;8.60;;;4.35;;
73454;SDS011;61690;51.824;6.306;2023-04-10T10:24:09;7.95;;;4.28;;
73454;SDS011;61690;51.824;6.306;2023-04-10T10:26:45;8.45;;;4.35;;
73454;SDS011;61690;51.824;6.306;2023-04-10T10:29:11;7.40;;;4.47;;
73454;SDS011;61690;51.824;6.306;2023-04-10T10:31:40;7.25;;;4.15;;
73454;SDS011;61690;51.824;6.306;2023-04-10T10:34:06;8.30;;;4.40;;
73454;SDS011;61690;51.824;6.306;2023-04-10T10:36:34;8.13;;;4.40;;
73454;SDS011;61690;51.824;6.306;2023-04-10T10:42:08;8.23;;;3.87;;
73454;SDS011;61690;51.824;6.306;2023-04-10T10:44:59;7.93;;;4.22;;
73454;SDS011;61690;51.824;6.306;2023-04-10T10:47:42;8.43;;;3.95;;
73454;SDS011;61690;51.824;6.306;2023-04-10T10:50:11;8.52;;;3.90;;
73454;SDS011;61690;51.824;6.306;2023-04-10T10:58:07;8.90;;;4.50;;
73454;SDS011;61690;51.824;6.306;2023-04-10T11:01:11;7.85;;;4.10;;
73454;SDS011;61690;51.824;6.306;2023-04-10T11:03:42;7.97;;;4.15;;
73454;SDS011;61690;51.824;6.306;2023-04-10T11:06:10;7.85;;;4.18;;
73454;SDS011;61690;51.824;6.306;2023-04-10T11:08:46;7.40;;;4.40;;
73454;SDS011;61690;51.824;6.306;2023-04-10T11:11:17;7.80;;;3.88;;
73454;SDS011;61690;51.824;6.306;2023-04-10T11:16:40;7.63;;;4.25;;
73454;SDS011;61690;51.824;6.306;2023-04-10T11:19:08;8.45;;;4.10;;
73454;SDS011;61690;51.824;6.306;2023-04-10T11:22:00;7.63;;;4.03;;
73454;SDS011;61690;51.824;6.306;2023-04-10T11:24:29;9.75;;;4.18;;
73454;SDS011;61690;51.824;6.306;2023-04-10T11:27:36;8.38;;;4.30;;
73454;SDS011;61690;51.824;6.306;2023-04-10T11:30:27;7.05;;;3.85;;
73454;SDS011;61690;51.824;6.306;2023-04-10T11:33:00;7.53;;;3.85;;
73454;SDS011;61690;51.824;6.306;2023-04-10T11:35:30;8.57;;;4.10;;
73454;SDS011;61690;51.824;6.306;2023-04-10T11:40:55;8.38;;;3.78;;
73454;SDS011;61690;51.824;6.306;2023-04-10T11:43:23;7.50;;;4.30;;
73454;SDS011;61690;51.824;6.306;2023-04-10T11:45:49;7.23;;;3.90;;
73454;SDS011;61690;51.824;6.306;2023-04-10T11:48:14;7.60;;;4.07;;
73454;SDS011;61690;51.824;6.306;2023-04-10T11:50:41;7.55;;;4.00;;
73454;SDS011;61690;51.824;6.306;2023-04-10T11:53:17;7.50;;;4.50;;
73454;SDS011;61690;51.824;6.306;2023-04-10T11:55:48;7.28;;;4.07;;
73454;SDS011;61690;51.824;6.306;2023-04-10T11:58:20;7.63;;;3.83;;
73454;SDS011;61690;51.824;6.306;2023-04-10T12:00:54;7.13;;;3.90;;
73454;SDS011;61690;51.824;6.306;2023-04-10T12:03:32;7.87;;;4.10;;
73454;SDS011;61690;51.824;6.306;2023-04-10T12:06:01;8.10;;;3.70;;
73454;SDS011;61690;51.824;6.306;2023-04-10T12:08:35;8.60;;;3.78;;
73454;SDS011;61690;51.824;6.306;2023-04-10T12:11:04;7.20;;;3.90;;
73454;SDS011;61690;51.824;6.306;2023-04-10T12:13:37;7.18;;;3.65;;
73454;SDS011;61690;51.824;6.306;2023-04-10T12:16:05;7.20;;;3.47;;
73454;SDS011;61690;51.824;6.306;2023-04-10T12:18:31;8.18;;;3.85;;
73454;SDS011;61690;51.824;6.306;2023-04-10T12:20:58;7.10;;;3.83;;
73454;SDS011;61690;51.824;6.306;2023-04-10T12:23:24;7.88;;;3.80;;
73454;SDS011;61690;51.824;6.306;2023-04-10T12:25:55;7.53;;;3.95;;
73454;SDS011;61690;51.824;6.306;2023-04-10T12:28:31;6.70;;;3.50;;
73454;SDS011;61690;51.824;6.306;2023-04-10T12:31:00;6.47;;;3.80;;
73454;SDS011;61690;51.824;6.306;2023-04-10T12:33:27;7.53;;;3.83;;
73454;SDS011;61690;51.824;6.306;2023-04-10T12:35:56;7.17;;;3.90;;
73454;SDS011;61690;51.824;6.306;2023-04-10T12:38:35;7.10;;;3.70;;
73454;SDS011;61690;51.824;6.306;2023-04-10T12:41:06;6.32;;;3.60;;
73454;SDS011;61690;51.824;6.306;2023-04-10T12:43:33;7.47;;;3.80;;
73454;SDS011;61690;51.824;6.306;2023-04-10T12:46:07;6.47;;;3.60;;
73454;SDS011;61690;51.824;6.306;2023-04-10T12:48:34;6.60;;;3.67;;
73454;SDS011;61690;51.824;6.306;2023-04-10T12:51:00;7.38;;;3.90;;
73454;SDS011;61690;51.824;6.306;2023-04-10T12:53:26;7.70;;;4.25;;
73454;SDS011;61690;51.824;6.306;2023-04-10T12:55:59;7.32;;;3.63;;
73454;SDS011;61690;51.824;6.306;2023-04-10T12:58:41;5.82;;;3.42;;
73454;SDS011;61690;51.824;6.306;2023-04-10T13:01:08;6.43;;;3.77;;
73454;SDS011;61690;51.824;6.306;2023-04-10T13:03:34;7.68;;;3.80;;
73454;SDS011;61690;51.824;6.306;2023-04-10T13:06:01;7.50;;;4.00;;
73454;SDS011;61690;51.824;6.306;2023-04-10T13:08:26;7.07;;;3.88;;
73454;SDS011;61690;51.824;6.306;2023-04-10T13:10:55;5.87;;;3.17;;
73454;SDS011;61690;51.824;6.306;2023-04-10T13:13:31;7.53;;;3.28;;
73454;SDS011;61690;51.824;6.306;2023-04-10T13:15:57;7.05;;;3.60;;
73454;SDS011;61690;51.824;6.306;2023-04-10T13:18:27;7.07;;;3.53;;
73454;SDS011;61690;51.824;6.306;2023-04-10T13:20:52;7.75;;;3.47;;
73454;SDS011;61690;51.824;6.306;2023-04-10T13:23:18;7.40;;;3.70;;
73454;SDS011;61690;51.824;6.306;2023-04-10T13:25:50;6.50;;;3.47;;
73454;SDS011;61690;51.824;6.306;2023-04-10T13:28:16;6.40;;;3.70;;
73454;SDS011;61690;51.824;6.306;2023-04-10T13:30:43;7.40;;;3.75;;
73454;SDS011;61690;51.824;6.306;2023-04-10T13:33:09;7.53;;;3.60;;
73454;SDS011;61690;51.824;6.306;2023-04-10T13:35:35;7.22;;;3.75;;
73454;SDS011;61690;51.824;6.306;2023-04-10T13:38:01;6.90;;;3.80;;
73454;SDS011;61690;51.824;6.306;2023-04-10T13:40:33;5.93;;;3.60;;
73454;SDS011;61690;51.824;6.306;2023-04-10T13:42:58;6.47;;;3.60;;
73454;SDS011;61690;51.824;6.306;2023-04-10T13:45:23;6.17;;;3.67;;
73454;SDS011;61690;51.824;6.306;2023-04-10T13:47:49;5.97;;;3.33;;
73454;SDS011;61690;51.824;6.306;2023-04-10T13:50:30;6.37;;;3.47;;
73454;SDS011;61690;51.824;6.306;2023-04-10T13:52:57;6.70;;;3.70;;
73454;SDS011;61690;51.824;6.306;2023-04-10T13:55:22;7.00;;;3.53;;
73454;SDS011;61690;51.824;6.306;2023-04-10T13:57:48;6.27;;;3.47;;
73454;SDS011;61690;51.824;6.306;2023-04-10T14:00:15;7.50;;;3.87;;
73454;SDS011;61690;51.824;6.306;2023-04-10T14:02:41;6.10;;;3.53;;
73454;SDS011;61690;51.824;6.306;2023-04-10T14:05:07;6.30;;;3.85;;
73454;SDS011;61690;51.824;6.306;2023-04-10T14:07:35;5.90;;;3.37;;
73454;SDS011;61690;51.824;6.306;2023-04-10T14:10:01;6.43;;;3.38;;
73454;SDS011;61690;51.824;6.306;2023-04-10T14:12:27;6.60;;;3.80;;
73454;SDS011;61690;51.824;6.306;2023-04-10T14:14:52;5.97;;;3.50;;
73454;SDS011;61690;51.824;6.306;2023-04-10T14:17:19;6.53;;;3.70;;
73454;SDS011;61690;51.824;6.306;2023-04-10T14:19:49;6.22;;;3.40;;
73454;SDS011;61690;51.824;6.306;2023-04-10T14:22:16;6.60;;;3.60;;
73454;SDS011;61690;51.824;6.306;2023-04-10T14:24:41;6.80;;;3.60;;
73454;SDS011;61690;51.824;6.306;2023-04-10T14:27:08;6.15;;;3.30;;
73454;SDS011;61690;51.824;6.306;2023-04-10T14:29:33;6.20;;;3.60;;
73454;SDS011;61690;51.824;6.306;2023-04-10T14:32:10;6.25;;;3.75;;
73454;SDS011;61690;51.824;6.306;2023-04-10T14:34:36;5.93;;;3.38;;
73454;SDS011;61690;51.824;6.306;2023-04-10T14:37:01;6.70;;;3.53;;
73454;SDS011;61690;51.824;6.306;2023-04-10T14:39:26;6.20;;;3.37;;
73454;SDS011;61690;51.824;6.306;2023-04-10T14:41:53;6.20;;;3.17;;
73454;SDS011;61690;51.824;6.306;2023-04-10T14:44:24;6.43;;;3.35;;
73454;SDS011;61690;51.824;6.306;2023-04-10T14:46:50;6.32;;;3.75;;
73454;SDS011;61690;51.824;6.306;2023-04-10T14:49:15;6.73;;;3.53;;
73454;SDS011;61690;51.824;6.306;2023-04-10T14:51:44;6.63;;;3.67;;
73454;SDS011;61690;51.824;6.306;2023-04-10T14:54:10;6.47;;;3.45;;
73454;SDS011;61690;51.824;6.306;2023-04-10T14:56:35;7.90;;;3.80;;
73454;SDS011;61690;51.824;6.306;2023-04-10T14:59:07;6.03;;;3.47;;
73454;SDS011;61690;51.824;6.306;2023-04-10T15:01:40;6.93;;;3.60;;
73454;SDS011;61690;51.824;6.306;2023-04-10T15:04:06;6.73;;;3.80;;
73454;SDS011;61690;51.824;6.306;2023-04-10T15:06:34;6.67;;;3.73;;
73454;SDS011;61690;51.824;6.306;2023-04-10T15:09:01;6.82;;;3.78;;
73454;SDS011;61690;51.824;6.306;2023-04-10T15:11:31;5.75;;;3.30;;
73454;SDS011;61690;51.824;6.306;2023-04-10T15:14:02;5.80;;;3.10;;
73454;SDS011;61690;51.824;6.306;2023-04-10T15:16:31;6.00;;;3.60;;
73454;SDS011;61690;51.824;6.306;2023-04-10T15:18:56;5.90;;;3.30;;
73454;SDS011;61690;51.824;6.306;2023-04-10T15:21:21;5.83;;;3.30;;
73454;SDS011;61690;51.824;6.306;2023-04-10T15:23:48;6.32;;;3.70;;
73454;SDS011;61690;51.824;6.306;2023-04-10T15:26:19;5.90;;;3.27;;